Terminal Aerodrome Forecast
Issued by NWS Blacksburg, VA

Current Version | Previous Version | Graphics & Text | Print | Product List | Glossary On
Versions: 1 2 3 4 5 6 7 8 9 10 11 12 13 14 15 16 17 18 19 20 21 22 23 24 25 26 27 28 29 30 31 32 33 34 35 36 37 38 39 40 41
000
FTUS41 KRNK 271727
TAFBLF
TAF
KBLF 271727Z 2718/2818 33007G14KT P6SM -SHRA OVC019
     FM272100 32008KT P6SM SCT020 BKN040
     FM280300 32009G19KT 5SM -SHSN OVC025
     FM281300 31011G22KT P6SM SCT025 OVC050=

USA.gov is the U.S. government's official web portal to all federal, state and local government web resources and services.